Time;durP1;ratioP1;P1;durP2;ratioP2;P2;SDS_P1;SDS_P2;PMS_P1;PMS_P2;Temp;Humidity;BMP_temperature;BMP_pressure;BME280_temperature;BME280_humidity;BME280_pressure;Samples;Min_cycle;Max_cycle;Signal;HPM_P1;HPM_P2
2023/06/14 00:01:46;;;;;;;10.02;5.57;;;21.40;85.20;;;;;;5134023;28;20539;-64
2023/06/14 00:04:16;;;;;;;6.18;4.40;;;21.40;85.60;;;;;;5133827;28;20540;-64
2023/06/14 00:06:44;;;;;;;5.40;4.60;;;21.30;86.50;;;;;;5133905;28;20245;-64
2023/06/14 00:09:12;;;;;;;5.50;4.85;;;21.30;85.60;;;;;;5134067;28;20185;-64
2023/06/14 00:11:38;;;;;;;5.72;5.00;;;21.20;85.70;;;;;;5133930;28;20181;-64
2023/06/14 00:14:04;;;;;;;7.75;5.10;;;21.20;86.10;;;;;;5133922;28;20169;-64
2023/06/14 00:16:30;;;;;;;9.02;5.10;;;21.20;86.10;;;;;;5134031;28;20304;-64
2023/06/14 00:18:56;;;;;;;8.13;4.70;;;21.00;86.80;;;;;;5133733;28;20205;-64
2023/06/14 00:21:21;;;;;;;6.90;4.93;;;21.10;86.40;;;;;;5136065;27;20207;-64
2023/06/14 00:23:47;;;;;;;7.22;4.72;;;21.10;85.70;;;;;;5137952;27;20685;-65
2023/06/14 00:26:13;;;;;;;7.22;5.00;;;21.10;86.30;;;;;;5137846;27;20169;-64
2023/06/14 00:28:38;;;;;;;5.55;4.35;;;21.10;86.00;;;;;;5137750;27;20177;-64
2023/06/14 00:31:04;;;;;;;7.38;4.80;;;21.00;85.60;;;;;;5137728;27;20176;-64
2023/06/14 00:33:30;;;;;;;6.63;4.28;;;21.10;86.10;;;;;;5137566;27;20629;-64
2023/06/14 00:35:55;;;;;;;6.93;4.70;;;21.00;86.90;;;;;;5137466;27;20185;-64
2023/06/14 00:38:21;;;;;;;5.75;5.00;;;20.90;85.90;;;;;;5137655;27;20223;-64
2023/06/14 00:40:47;;;;;;;8.95;5.60;;;20.90;86.40;;;;;;5137645;27;20184;-64
2023/06/14 00:43:12;;;;;;;7.93;5.68;;;20.80;86.20;;;;;;5137581;27;20641;-64
2023/06/14 00:45:38;;;;;;;7.38;5.75;;;20.90;86.30;;;;;;5137396;27;20222;-64
2023/06/14 00:48:06;;;;;;;7.07;5.30;;;20.90;85.60;;;;;;5137242;27;20231;-63
2023/06/14 00:50:33;;;;;;;6.90;5.32;;;20.90;86.20;;;;;;5137244;27;20339;-64
2023/06/14 00:53:00;;;;;;;7.82;5.60;;;20.80;86.40;;;;;;5137366;27;20168;-64
2023/06/14 00:55:26;;;;;;;7.63;5.30;;;20.80;86.30;;;;;;5137238;27;20720;-64
2023/06/14 00:57:53;;;;;;;7.78;6.05;;;20.80;86.40;;;;;;5137120;27;20672;-64
2023/06/14 01:00:19;;;;;;;6.57;5.70;;;20.70;85.70;;;;;;5137126;27;20263;-64
2023/06/14 01:02:44;;;;;;;8.75;6.00;;;20.70;86.60;;;;;;5136952;27;20706;-64
2023/06/14 01:05:10;;;;;;;9.13;5.70;;;20.70;86.40;;;;;;5137088;27;20173;-64
2023/06/14 01:07:47;;;;;;;7.93;5.72;;;20.60;86.40;;;;;;5136962;27;20184;-64
2023/06/14 01:10:22;;;;;;;7.63;5.65;;;20.60;87.20;;;;;;5136970;27;20259;-64
2023/06/14 01:13:10;;;;;;;7.35;5.93;;;20.60;87.20;;;;;;5136958;27;20200;-64
2023/06/14 01:15:38;;;;;;;9.23;6.45;;;20.60;86.90;;;;;;5136810;27;20168;-64
2023/06/14 01:18:04;;;;;;;7.80;6.00;;;20.50;85.20;;;;;;5118467;27;20577;-64
2023/06/14 01:20:32;;;;;;;9.02;6.30;;;20.50;85.70;;;;;;5136905;27;20537;-64
2023/06/14 01:22:59;;;;;;;7.38;5.55;;;20.30;85.90;;;;;;5136713;27;20251;-64
2023/06/14 01:25:26;;;;;;;7.82;6.22;;;20.40;85.90;;;;;;5136537;27;20240;-64
2023/06/14 01:28:02;;;;;;;8.18;5.78;;;20.40;85.40;;;;;;5136344;27;20259;-64
2023/06/14 01:30:30;;;;;;;8.73;6.53;;;20.40;85.60;;;;;;5136614;27;20184;-64
2023/06/14 01:32:57;;;;;;;8.50;6.47;;;20.30;85.20;;;;;;5136612;27;20173;-64
2023/06/14 01:35:23;;;;;;;6.88;6.22;;;20.10;85.30;;;;;;5136488;27;20538;-64
2023/06/14 01:37:50;;;;;;;7.38;5.97;;;20.10;85.00;;;;;;5136280;27;20203;-64
2023/06/14 01:40:17;;;;;;;11.27;6.32;;;20.20;85.80;;;;;;5136235;27;20181;-63
2023/06/14 01:42:45;;;;;;;9.00;6.80;;;20.20;85.90;;;;;;5136459;27;20265;-64
2023/06/14 01:45:11;;;;;;;10.18;6.20;;;20.10;85.20;;;;;;5136209;27;20169;-64
2023/06/14 01:47:37;;;;;;;7.32;5.55;;;20.00;85.30;;;;;;5135951;27;20252;-64
2023/06/14 01:50:04;;;;;;;7.22;6.28;;;20.00;84.70;;;;;;5136260;27;20250;-64
2023/06/14 01:52:29;;;;;;;9.35;6.15;;;20.00;84.50;;;;;;5136153;27;20537;-64
2023/06/14 01:54:55;;;;;;;8.80;6.20;;;19.90;84.20;;;;;;5136015;27;20172;-64
2023/06/14 01:57:22;;;;;;;8.15;6.05;;;19.90;84.90;;;;;;5136194;27;20236;-64
2023/06/14 01:59:48;;;;;;;7.05;5.97;;;20.00;83.70;;;;;;5136039;27;20701;-64
2023/06/14 02:02:15;;;;;;;7.20;5.88;;;19.90;83.50;;;;;;5135901;27;20180;-64
2023/06/14 02:04:41;;;;;;;7.05;5.70;;;19.80;83.30;;;;;;5135881;27;20187;-63
2023/06/14 02:07:07;;;;;;;6.93;5.97;;;19.90;83.70;;;;;;5135774;27;20629;-64
2023/06/14 02:09:34;;;;;;;9.52;6.03;;;19.70;83.80;;;;;;5135743;27;20517;-64
2023/06/14 02:12:00;;;;;;;8.20;5.50;;;19.80;83.40;;;;;;5135884;27;20191;-64
2023/06/14 02:14:26;;;;;;;8.30;5.95;;;19.80;84.10;;;;;;5135783;27;20169;-64
2023/06/14 02:16:52;;;;;;;6.15;5.38;;;19.80;82.70;;;;;;5135643;27;20179;-63
2023/06/14 02:19:19;;;;;;;7.97;5.28;;;19.70;83.20;;;;;;5135592;27;20176;-63
2023/06/14 02:21:45;;;;;;;8.55;6.05;;;19.80;82.10;;;;;;5135619;27;20180;-63
2023/06/14 02:24:11;;;;;;;8.70;5.50;;;19.70;81.30;;;;;;5135332;27;20164;-64
2023/06/14 02:26:41;;;;;;;8.15;5.47;;;19.70;81.70;;;;;;5116965;27;20228;-64
2023/06/14 02:29:12;;;;;;;6.43;5.60;;;19.70;81.50;;;;;;5135534;27;20629;-64
2023/06/14 02:31:38;;;;;;;6.32;5.03;;;19.70;82.50;;;;;;5135637;27;20215;-63
2023/06/14 02:34:04;;;;;;;8.10;5.43;;;19.70;81.60;;;;;;5135481;27;20193;-63
2023/06/14 02:36:30;;;;;;;6.65;5.35;;;19.70;81.00;;;;;;5135196;27;20742;-63
2023/06/14 02:38:59;;;;;;;5.95;5.32;;;19.70;80.40;;;;;;5135130;27;20228;-64
2023/06/14 02:41:25;;;;;;;6.95;5.15;;;19.60;79.70;;;;;;5135280;27;20215;-64
2023/06/14 02:43:51;;;;;;;7.30;5.35;;;19.60;80.50;;;;;;5134649;27;20184;-64
2023/06/14 02:46:17;;;;;;;5.47;4.93;;;19.50;81.10;;;;;;5135083;27;20241;-63
2023/06/14 02:48:46;;;;;;;5.43;4.82;;;19.50;81.30;;;;;;5116625;27;20692;-64
2023/06/14 02:51:12;;;;;;;6.43;4.32;;;19.60;79.40;;;;;;5134862;27;20561;-64
2023/06/14 02:53:38;;;;;;;5.38;4.40;;;19.70;80.60;;;;;;5135050;27;20169;-64
2023/06/14 02:56:04;;;;;;;6.30;4.82;;;19.70;79.40;;;;;;5134967;27;20664;-63
2023/06/14 02:58:30;;;;;;;6.97;4.63;;;19.70;78.90;;;;;;5134698;27;20295;-64
2023/06/14 03:00:56;;;;;;;6.30;4.85;;;19.60;78.70;;;;;;5134870;27;20172;-64
2023/06/14 03:03:24;;;;;;;8.30;5.03;;;19.50;80.50;;;;;;5134732;27;20692;-64
2023/06/14 03:05:51;;;;;;;7.25;4.53;;;19.50;78.60;;;;;;5134533;27;20202;-64
2023/06/14 03:08:19;;;;;;;6.82;4.78;;;19.50;80.00;;;;;;5134815;27;20188;-63
2023/06/14 03:10:46;;;;;;;7.22;4.65;;;19.40;78.80;;;;;;5134728;27;20165;-64
2023/06/14 03:13:13;;;;;;;6.10;4.25;;;19.40;78.70;;;;;;5134552;27;20229;-64
2023/06/14 03:15:41;;;;;;;5.20;4.60;;;19.40;80.00;;;;;;5134472;27;20167;-63
2023/06/14 03:18:11;;;;;;;6.10;4.40;;;19.50;79.50;;;;;;5134407;27;20192;-63
2023/06/14 03:20:38;;;;;;;5.90;4.88;;;19.50;79.20;;;;;;5134386;27;20572;-64
2023/06/14 03:23:04;;;;;;;5.35;4.38;;;19.50;77.80;;;;;;5134566;27;20168;-64
2023/06/14 03:25:31;;;;;;;5.50;4.47;;;19.50;79.30;;;;;;5134419;27;20169;-63
2023/06/14 03:27:57;;;;;;;5.75;4.65;;;19.50;78.60;;;;;;5134444;27;20168;-64
2023/06/14 03:30:22;;;;;;;6.82;4.53;;;19.50;78.50;;;;;;5134411;27;20256;-65
2023/06/14 03:32:48;;;;;;;5.47;4.32;;;19.40;79.30;;;;;;5134165;27;20176;-63
2023/06/14 03:35:17;;;;;;;7.15;4.63;;;19.40;79.60;;;;;;5115777;28;20181;-63
2023/06/14 03:37:46;;;;;;;9.43;5.10;;;19.40;78.20;;;;;;5134301;27;20252;-63
2023/06/14 03:40:15;;;;;;;8.32;4.85;;;19.40;78.60;;;;;;5134395;27;20176;-64
2023/06/14 03:42:40;;;;;;;6.28;4.55;;;19.30;79.20;;;;;;5134264;28;20196;-63
2023/06/14 03:45:07;;;;;;;10.80;4.78;;;19.30;79.40;;;;;;5134160;28;20578;-64
2023/06/14 03:47:34;;;;;;;5.13;4.47;;;19.30;78.00;;;;;;5133956;28;20173;-63
2023/06/14 03:50:00;;;;;;;7.13;4.68;;;19.30;79.20;;;;;;5134002;28;20532;-63
2023/06/14 03:52:27;;;;;;;6.07;4.68;;;19.30;80.00;;;;;;5134265;28;20518;-64
2023/06/14 03:54:52;;;;;;;6.25;4.60;;;19.30;79.30;;;;;;5134264;27;20618;-63
2023/06/14 03:57:18;;;;;;;6.90;4.55;;;19.30;79.50;;;;;;5138222;27;20237;-63
2023/06/14 03:59:44;;;;;;;15.20;7.60;;;19.30;80.30;;;;;;5138202;27;20217;-63
2023/06/14 04:02:10;;;;;;;9.55;5.40;;;19.20;79.20;;;;;;5138162;27;20202;-63
2023/06/14 04:04:36;;;;;;;6.20;4.65;;;19.20;80.10;;;;;;5138024;27;20181;-64
2023/06/14 04:07:03;;;;;;;5.05;4.43;;;19.20;79.60;;;;;;5138191;27;20261;-63
2023/06/14 04:09:29;;;;;;;12.27;5.82;;;19.20;80.30;;;;;;5138104;27;20173;-64
2023/06/14 04:11:55;;;;;;;7.70;4.45;;;19.10;78.50;;;;;;5138032;27;20259;-63
2023/06/14 04:14:22;;;;;;;6.05;5.25;;;19.00;79.10;;;;;;5137979;27;20177;-63
2023/06/14 04:16:49;;;;;;;5.88;5.00;;;19.10;79.50;;;;;;5120230;27;20187;-63
2023/06/14 04:19:15;;;;;;;5.50;4.68;;;19.10;80.20;;;;;;5117376;28;20205;-63
2023/06/14 04:21:40;;;;;;;5.63;4.35;;;19.00;79.70;;;;;;5117444;28;20615;-63
2023/06/14 04:24:06;;;;;;;7.25;4.80;;;19.10;80.40;;;;;;5099090;28;20177;-63
2023/06/14 04:26:33;;;;;;;7.18;4.85;;;19.10;78.70;;;;;;5117276;28;20178;-64
2023/06/14 04:29:02;;;;;;;7.18;4.53;;;19.10;81.50;;;;;;5117076;28;20271;-63
2023/06/14 04:31:33;;;;;;;7.07;4.72;;;19.10;80.40;;;;;;5116879;28;20173;-63
2023/06/14 04:33:59;;;;;;;7.75;4.57;;;19.10;81.50;;;;;;5117276;28;20780;-64
2023/06/14 04:36:26;;;;;;;8.95;4.72;;;19.20;81.70;;;;;;5117001;28;20634;-64
2023/06/14 04:38:54;;;;;;;6.20;5.10;;;19.10;80.30;;;;;;5116885;28;20221;-64
2023/06/14 04:41:22;;;;;;;8.80;4.90;;;19.10;81.00;;;;;;5116966;28;20229;-63
2023/06/14 04:43:49;;;;;;;6.13;4.05;;;19.10;81.10;;;;;;5116778;28;20228;-63
2023/06/14 04:46:15;;;;;;;8.57;4.80;;;19.10;81.40;;;;;;5116703;28;20521;-64
2023/06/14 04:48:45;;;;;;;6.78;4.13;;;19.10;81.70;;;;;;5115901;28;20225;-63
2023/06/14 04:51:11;;;;;;;7.03;5.25;;;19.20;81.80;;;;;;5115580;28;20626;-63
2023/06/14 04:53:37;;;;;;;11.30;5.10;;;19.10;81.30;;;;;;5115488;28;20223;-63
2023/06/14 04:56:03;;;;;;;11.45;4.97;;;19.20;82.20;;;;;;5115215;28;20212;-64
2023/06/14 04:58:29;;;;;;;5.40;4.80;;;19.20;81.20;;;;;;5108602;28;20236;-63
2023/06/14 05:00:59;;;;;;;7.47;4.97;;;19.20;80.80;;;;;;5115507;28;20200;-63
2023/06/14 05:03:25;;;;;;;9.00;5.20;;;19.30;79.70;;;;;;5114558;28;20169;-64
2023/06/14 05:05:53;;;;;;;6.00;4.38;;;19.30;80.10;;;;;;5114625;28;20165;-64
2023/06/14 05:08:19;;;;;;;8.10;4.65;;;19.30;79.60;;;;;;5115252;28;20181;-64
2023/06/14 05:10:45;;;;;;;11.07;5.50;;;19.40;80.90;;;;;;5115158;28;20230;-64
2023/06/14 05:13:11;;;;;;;10.30;5.45;;;19.40;80.30;;;;;;5115096;28;20173;-64
2023/06/14 05:15:37;;;;;;;10.05;5.47;;;19.40;80.50;;;;;;5115106;28;20246;-64
2023/06/14 05:18:02;;;;;;;7.78;5.07;;;19.60;79.60;;;;;;5115100;28;20212;-64
2023/06/14 05:20:29;;;;;;;15.27;6.05;;;19.70;80.40;;;;;;5115104;28;20173;-64
2023/06/14 05:22:56;;;;;;;13.43;5.82;;;19.70;80.80;;;;;;5114915;28;20169;-64
2023/06/14 05:25:22;;;;;;;15.35;6.30;;;19.80;80.30;;;;;;5114910;28;20246;-64
2023/06/14 05:27:48;;;;;;;13.70;5.80;;;19.90;79.80;;;;;;5114753;28;20184;-64
2023/06/14 05:30:15;;;;;;;10.93;5.45;;;19.90;79.60;;;;;;5114975;28;20609;-64
2023/06/14 05:32:41;;;;;;;9.35;5.55;;;20.10;80.90;;;;;;5115004;28;20256;-64
2023/06/14 05:35:07;;;;;;;9.52;5.25;;;20.10;81.10;;;;;;5114899;28;20176;-66
2023/06/14 05:37:33;;;;;;;9.73;5.75;;;20.20;80.80;;;;;;5114777;28;20688;-64
2023/06/14 05:39:59;;;;;;;11.18;5.55;;;20.30;79.80;;;;;;5114630;28;20182;-64
2023/06/14 05:42:24;;;;;;;13.65;5.85;;;20.30;80.10;;;;;;5114721;28;20181;-64
2023/06/14 05:44:50;;;;;;;18.20;6.50;;;20.40;79.00;;;;;;5114900;28;20176;-64
2023/06/14 05:49:59;;;;;;;9.18;5.68;;;20.40;80.70;;;;;;5090782;28;20587;-63
2023/06/14 05:52:25;;;;;;;8.40;5.70;;;20.70;79.20;;;;;;5090860;28;20181;-63
2023/06/14 05:54:50;;;;;;;8.63;5.45;;;20.70;78.80;;;;;;5090725;28;20631;-63
2023/06/14 05:57:16;;;;;;;8.43;5.38;;;20.80;79.40;;;;;;5090738;28;20256;-63
2023/06/14 05:59:44;;;;;;;8.68;5.57;;;20.90;79.80;;;;;;5090940;28;20235;-62
2023/06/14 06:02:10;;;;;;;6.95;5.70;;;21.10;78.50;;;;;;5090954;28;20170;-63
2023/06/14 06:04:36;;;;;;;12.07;5.72;;;21.10;78.70;;;;;;5090475;28;20174;-63
2023/06/14 06:07:01;;;;;;;11.27;5.68;;;21.20;78.60;;;;;;5090603;28;20623;-63
2023/06/14 06:09:27;;;;;;;10.93;5.88;;;21.30;77.70;;;;;;5090338;28;20193;-62
2023/06/14 06:11:53;;;;;;;9.55;5.32;;;21.40;77.80;;;;;;5090392;28;20182;-63
2023/06/14 06:14:18;;;;;;;8.35;4.72;;;21.60;76.90;;;;;;5090334;28;20216;-62
2023/06/14 06:16:44;;;;;;;6.00;5.40;;;21.50;76.00;;;;;;5090263;28;20170;-63
2023/06/14 06:19:10;;;;;;;8.85;5.20;;;21.50;76.20;;;;;;5090386;28;20194;-62
2023/06/14 06:21:35;;;;;;;8.30;5.20;;;21.50;75.70;;;;;;5090216;28;20193;-63
2023/06/14 06:24:05;;;;;;;9.05;5.35;;;21.60;75.90;;;;;;5090104;28;20647;-62
2023/06/14 06:26:31;;;;;;;12.38;5.50;;;21.80;76.00;;;;;;5089998;28;20653;-62
2023/06/14 06:28:58;;;;;;;8.07;5.25;;;21.80;75.70;;;;;;5090476;28;20201;-63
2023/06/14 06:31:23;;;;;;;7.50;4.72;;;22.10;75.90;;;;;;5090041;28;20210;-63
2023/06/14 06:33:50;;;;;;;6.72;4.65;;;22.20;76.30;;;;;;5089959;28;20197;-62
2023/06/14 06:36:16;;;;;;;7.20;4.88;;;22.30;77.50;;;;;;5089843;28;20671;-62
2023/06/14 06:38:42;;;;;;;7.13;5.20;;;22.50;76.80;;;;;;5089845;28;20210;-63
2023/06/14 06:41:07;;;;;;;9.77;5.10;;;22.60;77.60;;;;;;5090092;28;20200;-62
2023/06/14 06:43:33;;;;;;;7.35;5.40;;;22.80;75.20;;;;;;5090020;28;20526;-62
2023/06/14 06:45:58;;;;;;;10.57;5.15;;;22.90;74.30;;;;;;5089751;28;20177;-62
2023/06/14 06:48:24;;;;;;;8.52;5.15;;;22.90;75.50;;;;;;5089718;28;20261;-63
2023/06/14 06:50:51;;;;;;;8.80;5.05;;;22.90;74.00;;;;;;5089668;28;20223;-63
2023/06/14 06:53:18;;;;;;;8.43;5.07;;;23.00;75.30;;;;;;5089610;28;20265;-62
2023/06/14 06:55:44;;;;;;;7.07;5.13;;;23.00;74.60;;;;;;5089690;28;20185;-62
2023/06/14 06:58:09;;;;;;;7.78;5.22;;;23.00;74.90;;;;;;5089674;28;20178;-62
2023/06/14 07:00:35;;;;;;;7.32;5.00;;;23.00;75.30;;;;;;5080072;28;20221;-63
2023/06/14 07:03:01;;;;;;;7.60;5.40;;;23.20;76.30;;;;;;5075951;28;20708;-63
2023/06/14 07:05:27;;;;;;;7.15;4.88;;;23.10;74.00;;;;;;5075802;28;20167;-62
2023/06/14 07:07:52;;;;;;;6.35;4.70;;;23.30;75.10;;;;;;5075680;28;20202;-62
2023/06/14 07:10:18;;;;;;;12.32;4.68;;;23.40;73.90;;;;;;5074718;28;20270;-62
2023/06/14 07:12:44;;;;;;;9.57;5.32;;;23.50;74.90;;;;;;5075840;28;20236;-63
2023/06/14 07:15:10;;;;;;;8.07;5.35;;;23.60;73.20;;;;;;5075648;28;20528;-63
2023/06/14 07:17:36;;;;;;;12.02;5.72;;;23.70;76.00;;;;;;5075676;28;20178;-63
2023/06/14 07:20:12;;;;;;;7.15;5.32;;;23.70;75.00;;;;;;5075587;28;20174;-62
2023/06/14 07:22:41;;;;;;;8.75;5.03;;;23.80;74.40;;;;;;5075855;28;20547;-63
2023/06/14 07:25:14;;;;;;;11.60;5.15;;;23.90;75.10;;;;;;5075867;28;20198;-62
2023/06/14 07:27:41;;;;;;;8.20;5.22;;;24.10;75.70;;;;;;5075489;28;20221;-63
2023/06/14 07:30:07;;;;;;;8.50;5.53;;;24.10;73.00;;;;;;5075571;28;20179;-63
2023/06/14 07:32:33;;;;;;;9.65;5.47;;;24.00;73.60;;;;;;5075387;28;20174;-63
2023/06/14 07:34:59;;;;;;;9.70;5.32;;;23.90;74.00;;;;;;5075265;28;20224;-63
2023/06/14 07:37:25;;;;;;;8.32;4.47;;;24.10;72.30;;;;;;5075544;28;20627;-63
2023/06/14 07:39:50;;;;;;;8.25;4.93;;;24.40;74.60;;;;;;5075643;28;20179;-63
2023/06/14 07:42:16;;;;;;;10.23;5.15;;;24.70;73.10;;;;;;5075384;28;20635;-63
2023/06/14 07:44:42;;;;;;;6.10;4.90;;;24.90;73.00;;;;;;5075179;28;20175;-63
2023/06/14 07:47:07;;;;;;;9.65;5.07;;;24.90;71.80;;;;;;5073843;28;20555;-63
2023/06/14 07:49:33;;;;;;;9.52;5.32;;;24.90;74.30;;;;;;5074805;28;20241;-63
2023/06/14 07:51:58;;;;;;;10.35;5.72;;;25.30;74.30;;;;;;5074966;28;20573;-63
2023/06/14 07:54:26;;;;;;;11.52;5.63;;;25.10;72.10;;;;;;5075138;28;20179;-63
2023/06/14 07:56:52;;;;;;;7.75;5.57;;;25.10;72.90;;;;;;5075129;28;20175;-63
2023/06/14 07:59:18;;;;;;;11.27;5.68;;;25.30;72.40;;;;;;5075011;28;20179;-63
2023/06/14 08:01:47;;;;;;;12.25;5.35;;;25.30;72.90;;;;;;5074845;28;20181;-64
2023/06/14 08:04:16;;;;;;;9.93;5.50;;;25.40;73.30;;;;;;5074671;28;20178;-63
2023/06/14 08:06:45;;;;;;;9.50;5.10;;;25.60;72.30;;;;;;5074679;28;20179;-63
2023/06/14 08:09:12;;;;;;;9.98;5.57;;;25.80;72.60;;;;;;5074754;28;20202;-64
2023/06/14 08:11:38;;;;;;;12.68;5.20;;;25.80;70.50;;;;;;5073755;28;20215;-64
2023/06/14 08:14:04;;;;;;;11.27;5.72;;;25.80;70.80;;;;;;5074692;28;20171;-63
2023/06/14 08:16:29;;;;;;;7.35;5.13;;;25.90;71.10;;;;;;5074499;28;20220;-63
2023/06/14 08:18:55;;;;;;;9.30;5.25;;;26.10;72.30;;;;;;5074439;28;20178;-63
2023/06/14 08:21:21;;;;;;;9.18;5.40;;;26.10;71.70;;;;;;5074889;28;20178;-64
2023/06/14 08:23:47;;;;;;;15.00;5.60;;;26.10;70.40;;;;;;5074416;28;20189;-64
2023/06/14 08:26:13;;;;;;;11.75;5.35;;;26.30;71.90;;;;;;5074405;28;20654;-64
2023/06/14 08:28:39;;;;;;;15.38;6.15;;;26.10;71.60;;;;;;5074406;28;20210;-64
2023/06/14 08:31:04;;;;;;;12.48;6.00;;;26.30;71.30;;;;;;5074227;28;20185;-64
2023/06/14 08:33:32;;;;;;;9.98;5.25;;;26.00;68.60;;;;;;5074160;28;20194;-64
2023/06/14 08:35:58;;;;;;;10.35;4.97;;;26.10;70.40;;;;;;5074453;28;20265;-64
2023/06/14 08:38:24;;;;;;;12.82;5.57;;;26.20;70.40;;;;;;5074092;28;20658;-64
2023/06/14 08:40:52;;;;;;;8.40;5.22;;;26.30;69.80;;;;;;5074149;28;20175;-64
2023/06/14 08:43:18;;;;;;;8.35;5.43;;;26.20;68.50;;;;;;5074196;28;20189;-63
2023/06/14 08:45:46;;;;;;;10.77;5.20;;;26.30;71.40;;;;;;5073907;28;20162;-64
2023/06/14 08:48:16;;;;;;;10.82;5.30;;;26.30;71.70;;;;;;5073836;28;20283;-64
2023/06/14 08:50:45;;;;;;;8.77;5.47;;;26.50;72.00;;;;;;5073963;28;20620;-64
2023/06/14 08:53:19;;;;;;;8.70;6.15;;;26.60;72.20;;;;;;5073970;28;20713;-64
2023/06/14 08:55:45;;;;;;;11.48;4.78;;;26.40;69.50;;;;;;5073862;28;20240;-64
2023/06/14 08:58:14;;;;;;;12.57;5.57;;;26.40;72.30;;;;;;5073670;28;20640;-64
2023/06/14 09:00:42;;;;;;;9.55;5.50;;;26.60;70.60;;;;;;5073858;28;20171;-64
2023/06/14 09:03:13;;;;;;;9.48;5.35;;;26.70;71.60;;;;;;5073721;28;20224;-64
2023/06/14 09:05:39;;;;;;;11.88;5.38;;;26.70;71.10;;;;;;5073741;28;20179;-63
2023/06/14 09:08:05;;;;;;;9.18;5.00;;;26.60;68.80;;;;;;5073377;28;20260;-63
2023/06/14 09:10:36;;;;;;;14.10;5.60;;;26.70;70.50;;;;;;5073548;28;20175;-64
2023/06/14 09:13:03;;;;;;;9.32;4.93;;;26.70;71.60;;;;;;5073409;28;20635;-64
2023/06/14 09:15:30;;;;;;;6.28;5.15;;;26.80;70.30;;;;;;5073478;28;20496;-64
2023/06/14 09:17:55;;;;;;;7.40;5.50;;;26.50;70.60;;;;;;5072290;28;20621;-64
2023/06/14 09:20:24;;;;;;;10.95;4.65;;;26.60;70.90;;;;;;5073172;28;20260;-64
2023/06/14 09:22:50;;;;;;;10.85;5.25;;;26.70;71.00;;;;;;5073211;28;20171;-64
2023/06/14 09:25:16;;;;;;;7.40;4.90;;;26.50;69.50;;;;;;5073343;28;20261;-64
2023/06/14 09:27:42;;;;;;;8.40;5.10;;;26.50;69.80;;;;;;5073129;28;20205;-64
2023/06/14 09:30:11;;;;;;;11.80;5.00;;;26.50;70.20;;;;;;5073481;28;20273;-64
2023/06/14 09:32:39;;;;;;;8.60;4.90;;;26.60;70.10;;;;;;5073558;28;20519;-64
2023/06/14 09:35:08;;;;;;;7.05;4.38;;;27.00;70.40;;;;;;5073294;28;20171;-64
2023/06/14 09:37:35;;;;;;;9.48;4.72;;;27.20;68.50;;;;;;5073319;28;20713;-64
2023/06/14 09:40:03;;;;;;;12.52;5.40;;;27.30;69.00;;;;;;5073097;28;20189;-64
2023/06/14 09:42:29;;;;;;;11.07;4.85;;;27.30;68.40;;;;;;5073387;28;20174;-64
2023/06/14 09:44:56;;;;;;;10.50;5.00;;;27.40;68.70;;;;;;5073261;28;20201;-64
2023/06/14 09:47:23;;;;;;;8.82;5.22;;;27.90;67.60;;;;;;5073311;28;20167;-64
2023/06/14 09:49:50;;;;;;;10.20;5.30;;;27.70;65.90;;;;;;5073154;28;20284;-64
2023/06/14 09:52:19;;;;;;;7.57;4.57;;;27.50;67.20;;;;;;5073040;28;20679;-64
2023/06/14 09:54:47;;;;;;;12.50;5.05;;;27.60;68.60;;;;;;5071939;28;20569;-64
2023/06/14 09:57:14;;;;;;;7.88;4.93;;;27.50;66.10;;;;;;5073166;28;20260;-65
2023/06/14 09:59:43;;;;;;;7.07;4.45;;;27.10;65.50;;;;;;5073151;28;20174;-64
2023/06/14 10:02:28;;;;;;;10.32;4.88;;;27.30;67.60;;;;;;5073086;28;20166;-65
2023/06/14 10:05:11;;;;;;;8.60;4.30;;;27.30;67.80;;;;;;5072957;28;20178;-64
2023/06/14 10:07:55;;;;;;;9.60;4.28;;;27.50;68.20;;;;;;5073175;28;20181;-64
2023/06/14 10:10:21;;;;;;;11.02;5.05;;;27.20;66.00;;;;;;5073138;28;20167;-66
2023/06/14 10:12:47;;;;;;;7.15;4.55;;;27.50;66.30;;;;;;5072873;28;20186;-65
2023/06/14 10:15:42;;;;;;;4.88;4.20;;;27.10;65.60;;;;;;5072874;28;20195;-65
2023/06/14 10:18:21;;;;;;;7.93;4.10;;;27.30;68.00;;;;;;5069650;28;20212;-64
2023/06/14 10:21:07;;;;;;;6.80;4.30;;;27.90;68.00;;;;;;5073098;28;20167;-65
2023/06/14 10:23:37;;;;;;;6.97;4.30;;;28.10;66.20;;;;;;5072864;28;20178;-64
2023/06/14 10:26:02;;;;;;;4.90;3.75;;;28.10;64.50;;;;;;5072698;28;20178;-65
2023/06/14 10:28:30;;;;;;;7.70;3.97;;;28.30;65.30;;;;;;5072959;28;20218;-64
2023/06/14 10:31:15;;;;;;;7.32;4.43;;;28.20;65.50;;;;;;5072774;28;20183;-65
2023/06/14 10:33:53;;;;;;;6.13;4.00;;;28.50;65.10;;;;;;5072701;28;20170;-64
2023/06/14 10:36:22;;;;;;;9.00;4.88;;;28.50;64.90;;;;;;5075572;28;20201;-64
2023/06/14 10:39:17;;;;;;;8.43;4.32;;;28.70;64.20;;;;;;5076597;28;20190;-65
2023/06/14 10:41:54;;;;;;;7.30;4.28;;;28.50;62.60;;;;;;5071515;28;20213;-64
2023/06/14 10:44:19;;;;;;;6.57;3.95;;;28.60;63.50;;;;;;5076365;28;20174;-65
2023/06/14 10:46:52;;;;;;;11.98;4.72;;;28.30;63.10;;;;;;5076207;28;20175;-65
2023/06/14 10:49:43;;;;;;;15.63;4.72;;;28.50;63.40;;;;;;5076404;28;20320;-65
2023/06/14 10:52:16;;;;;;;5.90;3.55;;;28.60;64.80;;;;;;5076380;28;20658;-65
2023/06/14 10:55:01;;;;;;;13.00;4.60;;;28.60;63.60;;;;;;5076236;28;20625;-64
2023/06/14 10:57:27;;;;;;;5.55;3.40;;;28.50;63.00;;;;;;5075958;28;20217;-63
2023/06/14 10:59:54;;;;;;;5.57;3.95;;;28.30;62.70;;;;;;5076160;28;20513;-64
2023/06/14 11:02:19;;;;;;;6.85;3.75;;;28.50;62.30;;;;;;5076190;28;20166;-64
2023/06/14 11:04:51;;;;;;;3.53;3.20;;;28.40;61.60;;;;;;5074706;28;20174;-65
2023/06/14 11:07:55;;;;;;;6.18;3.17;;;28.50;62.40;;;;;;5075884;28;20175;-64
2023/06/14 11:10:40;;;;;;;8.65;3.15;;;28.60;60.70;;;;;;5076194;28;20175;-65
2023/06/14 11:13:09;;;;;;;5.32;3.40;;;28.70;63.10;;;;;;5075861;28;20206;-65
2023/06/14 11:15:43;;;;;;;8.65;4.25;;;28.70;61.10;;;;;;5075838;28;20198;-65
2023/06/14 11:18:11;;;;;;;6.78;4.05;;;28.50;61.20;;;;;;5075656;28;20182;-65
2023/06/14 11:20:37;;;;;;;5.22;3.50;;;28.70;62.70;;;;;;5075690;28;20167;-65
2023/06/14 11:23:04;;;;;;;4.35;3.63;;;28.70;61.50;;;;;;5075728;28;20258;-64
2023/06/14 11:25:30;;;;;;;13.07;3.78;;;29.00;62.50;;;;;;5075696;28;20178;-65
2023/06/14 11:27:57;;;;;;;7.75;3.35;;;29.20;60.80;;;;;;5075629;28;20200;-65
2023/06/14 11:30:26;;;;;;;5.00;3.03;;;29.10;59.70;;;;;;5075535;28;20190;-65
2023/06/14 11:32:53;;;;;;;7.13;3.40;;;28.70;61.30;;;;;;5075616;28;20174;-64
2023/06/14 11:35:22;;;;;;;4.75;3.58;;;28.90;62.50;;;;;;5075557;28;20690;-65
2023/06/14 11:37:48;;;;;;;6.88;3.63;;;28.50;60.50;;;;;;5075376;28;20216;-65
2023/06/14 11:40:14;;;;;;;7.20;3.70;;;28.60;61.60;;;;;;5075272;28;20636;-65
2023/06/14 11:42:41;;;;;;;7.03;3.17;;;28.60;61.10;;;;;;5075273;28;20179;-65
2023/06/14 11:45:11;;;;;;;6.13;3.45;;;28.80;60.90;;;;;;5073941;28;20540;-64
2023/06/14 11:47:39;;;;;;;6.82;3.13;;;29.00;61.40;;;;;;5075039;28;20171;-65
2023/06/14 11:50:08;;;;;;;6.15;3.47;;;29.10;62.10;;;;;;5075156;28;20224;-64
2023/06/14 11:52:34;;;;;;;4.70;3.30;;;29.20;61.00;;;;;;5075135;28;20176;-65
2023/06/14 11:55:01;;;;;;;8.55;3.58;;;29.20;60.70;;;;;;5075099;28;20167;-65
2023/06/14 11:57:26;;;;;;;6.38;3.78;;;28.90;60.10;;;;;;5074915;28;20595;-66
2023/06/14 11:59:54;;;;;;;9.60;3.47;;;28.60;59.70;;;;;;5074802;28;20178;-66
2023/06/14 12:02:22;;;;;;;5.53;3.33;;;28.70;61.00;;;;;;5075077;28;20163;-65
2023/06/14 12:04:48;;;;;;;5.57;2.95;;;28.90;62.70;;;;;;5075025;28;20167;-66
2023/06/14 12:07:17;;;;;;;8.55;3.35;;;29.10;61.70;;;;;;5075052;28;20163;-65
2023/06/14 12:10:05;;;;;;;6.28;3.13;;;28.80;62.20;;;;;;5074656;28;20211;-66
2023/06/14 12:12:31;;;;;;;4.25;3.53;;;28.70;61.70;;;;;;5074675;28;20190;-65
2023/06/14 12:14:56;;;;;;;6.13;3.50;;;28.90;61.30;;;;;;5074766;28;20174;-65
2023/06/14 12:17:22;;;;;;;5.47;3.15;;;29.00;59.00;;;;;;5074637;28;20254;-65
2023/06/14 12:19:49;;;;;;;8.85;3.03;;;29.00;60.10;;;;;;5074619;28;20627;-65
2023/06/14 12:22:16;;;;;;;8.35;3.65;;;29.00;60.90;;;;;;5074419;28;20640;-65
2023/06/14 12:24:46;;;;;;;5.43;3.17;;;28.80;60.50;;;;;;5074385;28;20203;-65
2023/06/14 12:27:15;;;;;;;6.60;3.22;;;28.80;61.20;;;;;;5074289;28;20717;-66
2023/06/14 12:29:43;;;;;;;3.90;3.13;;;28.90;61.30;;;;;;5074280;28;20214;-65
2023/06/14 12:32:09;;;;;;;3.97;3.03;;;29.00;61.30;;;;;;5074368;28;20202;-66
2023/06/14 12:34:35;;;;;;;5.90;3.45;;;29.00;61.30;;;;;;5074230;28;20642;-65
2023/06/14 12:37:03;;;;;;;6.28;3.28;;;28.90;60.40;;;;;;5074300;28;20213;-65
2023/06/14 12:39:29;;;;;;;4.38;2.90;;;28.70;60.40;;;;;;5074002;28;20276;-65
2023/06/14 12:41:55;;;;;;;5.70;3.20;;;29.00;61.30;;;;;;5074189;28;20182;-65
2023/06/14 12:44:21;;;;;;;4.40;3.30;;;29.00;60.50;;;;;;5073973;28;20662;-65
2023/06/14 12:46:46;;;;;;;5.07;3.38;;;28.90;60.60;;;;;;5074047;28;20646;-66
2023/06/14 12:49:12;;;;;;;5.95;2.90;;;29.00;60.90;;;;;;5073742;28;20325;-66
2023/06/14 12:51:39;;;;;;;6.65;3.58;;;29.10;60.90;;;;;;5073961;28;20338;-66